Time;durP1;ratioP1;P1;durP2;ratioP2;P2;SDS_P1;SDS_P2;PMS_P1;PMS_P2;Temp;Humidity;BMP_temperature;BMP_pressure;BME280_temperature;BME280_humidity;BME280_pressure;Samples;Min_cycle;Max_cycle;Signal;HPM_P1;HPM_P2
2021/12/31 00:00:09;;;;;;;1.77;1.60;;;;;;;14.76;81.01;99348.06;5019226;28;103236;-77
2021/12/31 00:02:37;;;;;;;1.70;1.60;;;;;;;14.79;80.84;99350.50;5013537;28;103274;-77
2021/12/31 00:05:08;;;;;;;1.93;1.73;;;;;;;14.81;80.85;99345.91;5015611;28;103190;-77
2021/12/31 00:07:36;;;;;;;1.70;1.60;;;;;;;14.85;80.59;99348.19;5020695;27;102638;-77
2021/12/31 00:10:06;;;;;;;1.70;1.60;;;;;;;14.86;80.62;99343.72;5018973;27;103812;-77
2021/12/31 00:12:35;;;;;;;1.90;1.80;;;;;;;14.87;80.12;99340.09;5015296;28;103318;-77
2021/12/31 00:15:04;;;;;;;1.73;1.52;;;;;;;14.85;79.75;99342.03;5017405;27;103249;-77
2021/12/31 00:17:32;;;;;;;1.40;1.30;;;;;;;14.82;80.25;99348.41;5015069;28;102682;-77
2021/12/31 00:20:04;;;;;;;1.55;1.40;;;;;;;14.85;80.12;99347.34;5020930;27;102704;-77
2021/12/31 00:22:58;;;;;;;1.17;1.02;;;;;;;14.85;80.15;99347.34;5016377;27;104244;-77
2021/12/31 00:25:27;;;;;;;1.60;1.38;;;;;;;14.85;80.03;99342.03;5016590;28;103200;-77
2021/12/31 00:27:55;;;;;;;1.50;1.40;;;;;;;14.83;79.89;99343.94;5018291;28;102686;-77
2021/12/31 00:30:23;;;;;;;1.42;1.33;;;;;;;14.82;79.73;99339.63;5011900;28;102692;-77
2021/12/31 00:32:52;;;;;;;1.47;1.37;;;;;;;14.82;79.63;99345.75;5016465;27;103483;-77
2021/12/31 00:35:21;;;;;;;2.13;1.70;;;;;;;14.48;79.40;99346.75;5017349;28;103345;-77
2021/12/31 00:37:51;;;;;;;1.48;1.33;;;;;;;14.59;80.30;99346.75;5002496;27;102741;-77
2021/12/31 00:40:20;;;;;;;1.65;1.45;;;;;;;14.69;79.67;99353.03;5015834;28;102808;-77
2021/12/31 00:42:49;;;;;;;1.30;1.20;;;;;;;14.77;79.68;99357.72;5020898;27;103443;-77
2021/12/31 00:45:19;;;;;;;1.40;1.30;;;;;;;14.78;79.37;99351.47;5020425;27;102990;-77
2021/12/31 00:47:50;;;;;;;1.45;1.35;;;;;;;14.76;79.37;99342.75;5009642;28;102695;-77
2021/12/31 00:50:21;;;;;;;1.65;1.48;;;;;;;14.79;79.40;99345.19;5019847;27;104162;-77
2021/12/31 00:52:50;;;;;;;2.80;1.70;;;;;;;14.39;80.60;99344.78;5018265;28;103846;-77
2021/12/31 00:55:19;;;;;;;3.20;1.70;;;;;;;14.37;80.84;99342.25;5015863;28;103183;-77
2021/12/31 00:57:48;;;;;;;1.52;1.40;;;;;;;14.51;80.05;99344.66;5016505;27;102722;-77
2021/12/31 01:00:17;;;;;;;1.48;1.38;;;;;;;14.54;79.85;99353.41;5009915;28;102824;-77
2021/12/31 01:02:47;;;;;;;1.20;1.10;;;;;;;14.63;79.50;99353.50;5019231;27;103418;-77
2021/12/31 01:05:18;;;;;;;1.17;1.08;;;;;;;14.70;79.25;99353.88;5014917;28;103183;-77
2021/12/31 01:07:47;;;;;;;1.25;1.13;;;;;;;14.64;79.09;99357.88;5014866;28;102653;-77
2021/12/31 01:10:18;;;;;;;1.30;1.20;;;;;;;14.63;79.68;99357.97;5018225;27;103847;-77
2021/12/31 01:12:47;;;;;;;1.20;1.10;;;;;;;14.46;79.88;99357.47;5019607;27;104367;-77
2021/12/31 01:15:19;;;;;;;1.60;1.08;;;;;;;14.41;80.57;99359.66;5015594;28;103215;-77
2021/12/31 01:18:13;;;;;;;2.10;1.25;;;;;;;14.22;81.57;99350.53;5012814;28;102718;-77
2021/12/31 01:20:40;;;;;;;1.38;1.13;;;;;;;14.36;81.63;99367.16;5017290;27;103917;-77
2021/12/31 01:23:09;;;;;;;1.40;1.30;;;;;;;14.39;81.42;99366.91;5015171;28;103268;-77
2021/12/31 01:25:39;;;;;;;2.20;1.23;;;;;;;14.39;81.40;99366.91;5014801;27;103257;-77
2021/12/31 01:28:07;;;;;;;1.20;1.10;;;;;;;14.32;81.86;99365.69;5018396;27;102572;-77
2021/12/31 01:30:38;;;;;;;1.90;1.30;;;;;;;14.36;81.09;99359.19;5014497;27;103203;-77
2021/12/31 01:33:06;;;;;;;2.10;1.43;;;;;;;14.02;83.19;99368.00;5019500;27;104060;-76
2021/12/31 01:35:35;;;;;;;1.30;1.17;;;;;;;14.03;83.64;99364.38;5018639;27;103370;-76
2021/12/31 01:38:03;;;;;;;2.80;1.33;;;;;;;13.64;84.83;99364.72;5019697;28;102710;-77
2021/12/31 01:40:31;;;;;;;1.67;1.27;;;;;;;13.70;84.77;99367.75;5013784;27;102633;-77
2021/12/31 01:43:01;;;;;;;1.95;1.30;;;;;;;13.79;84.63;99360.91;5019999;27;104521;-77
2021/12/31 01:45:32;;;;;;;2.10;1.33;;;;;;;13.49;85.74;99363.19;5018791;28;103226;-77
2021/12/31 01:48:08;;;;;;;1.73;1.23;;;;;;;13.50;85.68;99364.91;5019262;27;102956;-77
2021/12/31 01:50:37;;;;;;;1.58;1.20;;;;;;;13.74;84.78;99363.06;5018032;28;103833;-77
2021/12/31 01:53:06;;;;;;;1.30;1.00;;;;;;;13.56;85.53;99359.13;5015621;28;103281;-77
2021/12/31 01:55:34;;;;;;;1.80;1.27;;;;;;;13.26;86.30;99368.38;5016295;27;103194;-77
2021/12/31 01:58:05;;;;;;;2.77;1.60;;;;;;;13.24;86.46;99375.63;5016684;28;103191;-77
2021/12/31 02:00:33;;;;;;;1.70;1.40;;;;;;;13.06;87.35;99365.44;5009396;28;103613;-77
2021/12/31 02:03:02;;;;;;;1.83;1.40;;;;;;;13.29;86.49;99368.16;5008863;27;104283;-77
2021/12/31 02:05:30;;;;;;;1.65;1.17;;;;;;;13.45;86.17;99372.31;5018377;27;103202;-77
2021/12/31 02:07:59;;;;;;;1.53;1.40;;;;;;;13.33;85.42;99363.47;5014782;27;102975;-77
2021/12/31 02:10:28;;;;;;;3.58;1.15;;;;;;;13.39;85.29;99360.34;5015735;28;103794;-77
2021/12/31 02:12:56;;;;;;;1.52;1.23;;;;;;;13.50;84.78;99351.63;5016814;27;103278;-77
2021/12/31 02:15:28;;;;;;;2.10;1.20;;;;;;;13.37;85.64;99354.31;5016370;27;103318;-77
2021/12/31 02:17:56;;;;;;;1.63;1.30;;;;;;;13.14;86.27;99357.78;5017275;27;102723;-77
2021/12/31 02:20:35;;;;;;;1.10;1.00;;;;;;;13.43;85.20;99358.31;5015509;28;103992;-77
2021/12/31 02:23:06;;;;;;;1.83;1.20;;;;;;;13.50;83.27;99360.41;5018016;27;103291;-77
2021/12/31 02:25:36;;;;;;;1.37;0.90;;;;;;;13.68;83.18;99363.53;5017745;27;103559;-77
2021/12/31 02:28:05;;;;;;;0.97;0.90;;;;;;;13.64;82.39;99356.75;5010592;28;103226;-77
2021/12/31 02:30:33;;;;;;;1.38;1.17;;;;;;;13.61;81.60;99351.69;5018700;28;102667;-77
2021/12/31 02:33:03;;;;;;;1.00;0.90;;;;;;;13.61;82.21;99357.00;5019466;28;103313;-77
2021/12/31 02:35:33;;;;;;;1.40;1.20;;;;;;;13.46;81.76;99352.78;5012783;28;103256;-77
2021/12/31 02:38:03;;;;;;;1.10;1.00;;;;;;;13.51;81.71;99351.50;5020928;27;102889;-77
2021/12/31 02:40:32;;;;;;;0.85;0.80;;;;;;;13.53;81.71;99354.06;5005376;27;103809;-77
2021/12/31 02:43:04;;;;;;;0.70;0.70;;;;;;;13.52;81.06;99347.91;5016392;28;104400;-77
2021/12/31 02:45:36;;;;;;;0.95;0.90;;;;;;;13.51;81.10;99350.66;5018090;28;103289;-77
2021/12/31 02:48:06;;;;;;;1.20;1.08;;;;;;;13.47;80.70;99354.50;5010347;28;102567;-77
2021/12/31 02:50:39;;;;;;;1.60;1.10;;;;;;;13.33;81.25;99348.38;5020198;28;103936;-77
2021/12/31 02:53:11;;;;;;;1.02;0.90;;;;;;;13.31;81.51;99349.47;5020984;27;104703;-77
2021/12/31 02:55:44;;;;;;;1.20;1.10;;;;;;;13.29;81.09;99349.59;5006920;28;103414;-77
2021/12/31 02:58:12;;;;;;;1.90;1.30;;;;;;;13.10;81.17;99341.28;5023002;27;102628;-77
2021/12/31 03:00:42;;;;;;;1.35;1.13;;;;;;;13.01;82.40;99341.91;5017986;27;103618;-77
2021/12/31 03:03:13;;;;;;;1.10;1.00;;;;;;;12.92;82.60;99336.41;5032968;27;104525;-77
2021/12/31 03:05:45;;;;;;;1.48;1.35;;;;;;;12.93;82.19;99344.25;5019714;27;102997;-77
2021/12/31 03:08:16;;;;;;;1.00;0.90;;;;;;;12.99;82.20;99335.00;5019916;28;102697;-77
2021/12/31 03:10:47;;;;;;;1.58;1.20;;;;;;;12.98;81.63;99342.13;5022209;27;102734;-77
2021/12/31 03:13:17;;;;;;;1.50;1.20;;;;;;;12.88;81.53;99341.09;5018306;28;104046;-77
2021/12/31 03:15:46;;;;;;;1.10;0.98;;;;;;;12.86;82.10;99342.97;5013656;28;103122;-77
2021/12/31 03:18:15;;;;;;;1.10;1.00;;;;;;;12.85;81.47;99336.00;5020683;27;102980;-77
2021/12/31 03:20:57;;;;;;;1.00;1.00;;;;;;;12.84;81.82;99331.66;5020164;28;103716;-77
2021/12/31 03:23:25;;;;;;;1.63;1.23;;;;;;;12.77;82.00;99333.88;5005668;27;104241;-77
2021/12/31 03:25:53;;;;;;;1.20;1.07;;;;;;;12.78;81.76;99335.59;5020819;27;103166;-77
2021/12/31 03:28:21;;;;;;;1.50;1.20;;;;;;;12.77;81.84;99343.66;5021156;27;102643;-77
2021/12/31 03:30:50;;;;;;;2.72;1.10;;;;;;;12.68;81.34;99336.34;5013604;28;103753;-77
2021/12/31 03:33:19;;;;;;;1.27;1.10;;;;;;;12.66;82.07;99346.19;5019554;28;104641;-77
2021/12/31 03:35:48;;;;;;;1.23;1.13;;;;;;;12.61;81.85;99348.34;5015333;28;103169;-77
2021/12/31 03:38:16;;;;;;;1.50;1.20;;;;;;;12.60;82.20;99346.66;5017931;28;102788;-77
2021/12/31 03:40:46;;;;;;;1.77;1.60;;;;;;;12.58;81.85;99345.91;5018073;28;102800;-77
2021/12/31 03:43:14;;;;;;;1.40;1.30;;;;;;;12.50;81.90;99346.44;5022442;27;103294;-77
2021/12/31 03:45:46;;;;;;;1.65;1.35;;;;;;;12.46;82.29;99346.78;5017454;28;103351;-77
2021/12/31 03:48:15;;;;;;;1.55;1.20;;;;;;;12.48;82.92;99355.47;5019206;28;102916;-77
2021/12/31 03:50:43;;;;;;;2.00;1.30;;;;;;;12.50;82.34;99343.78;5016531;28;103550;-77
2021/12/31 03:53:14;;;;;;;1.40;1.20;;;;;;;12.44;82.67;99340.72;5016916;28;103583;-77
2021/12/31 03:55:43;;;;;;;1.30;1.20;;;;;;;12.49;82.26;99343.91;5034391;27;104432;-77
2021/12/31 03:58:11;;;;;;;1.50;1.10;;;;;;;12.42;82.67;99343.47;5019445;28;103114;-77
2021/12/31 04:00:39;;;;;;;1.17;1.00;;;;;;;12.38;82.86;99347.28;5021676;27;102644;-77
2021/12/31 04:03:09;;;;;;;1.40;1.30;;;;;;;12.31;82.34;99346.03;5017671;27;104078;-77
2021/12/31 04:05:41;;;;;;;1.48;1.38;;;;;;;12.20;82.63;99348.56;5017642;28;103344;-77
2021/12/31 04:08:10;;;;;;;2.47;1.50;;;;;;;12.02;84.24;99350.66;5017279;28;102949;-77
2021/12/31 04:10:39;;;;;;;1.70;1.30;;;;;;;12.15;83.86;99351.53;5020243;27;103891;-77
2021/12/31 04:13:07;;;;;;;1.58;1.48;;;;;;;12.18;83.67;99345.19;5019829;27;103324;-77
2021/12/31 04:15:38;;;;;;;1.80;1.70;;;;;;;12.19;83.19;99350.38;5021572;27;103182;-77
2021/12/31 04:18:07;;;;;;;2.13;1.60;;;;;;;12.16;83.78;99339.97;5006710;28;102702;-77
2021/12/31 04:20:43;;;;;;;1.90;1.80;;;;;;;12.14;83.42;99333.94;5019336;27;102630;-77
2021/12/31 04:23:14;;;;;;;1.70;1.60;;;;;;;12.10;83.64;99327.16;5006556;28;104351;-77
2021/12/31 04:25:47;;;;;;;1.80;1.70;;;;;;;12.11;83.42;99338.59;5019356;28;103381;-73
2021/12/31 04:28:16;;;;;;;2.22;2.03;;;;;;;12.09;83.04;99330.78;5016829;28;103175;-74
2021/12/31 04:30:44;;;;;;;2.35;2.15;;;;;;;11.98;83.10;99333.31;5021880;27;102608;-74
2021/12/31 04:33:12;;;;;;;2.28;2.08;;;;;;;11.87;82.80;99335.84;5022441;27;104031;-74
2021/12/31 04:35:40;;;;;;;3.10;2.30;;;;;;;11.82;83.40;99335.28;5005446;28;103430;-74
2021/12/31 04:38:09;;;;;;;2.10;1.90;;;;;;;11.89;83.17;99333.94;5017089;28;102599;-75
2021/12/31 04:40:38;;;;;;;2.13;1.80;;;;;;;11.87;83.29;99335.84;5016081;28;102702;-74
2021/12/31 04:43:07;;;;;;;2.00;1.80;;;;;;;11.92;83.38;99322.28;5018703;28;104190;-77
2021/12/31 04:45:38;;;;;;;2.50;1.70;;;;;;;11.87;83.54;99322.59;5017862;27;103254;-77
2021/12/31 04:48:06;;;;;;;1.80;1.70;;;;;;;11.86;83.66;99323.53;5021287;27;103152;-77
2021/12/31 04:50:35;;;;;;;2.33;1.70;;;;;;;11.82;83.01;99326.47;5021657;27;104495;-76
2021/12/31 04:53:04;;;;;;;1.90;1.75;;;;;;;11.78;83.50;99325.84;5007495;28;103128;-75
2021/12/31 04:55:32;;;;;;;1.50;1.40;;;;;;;11.80;83.47;99328.38;5012793;28;104195;-74
2021/12/31 04:58:00;;;;;;;1.30;1.20;;;;;;;11.78;83.67;99325.84;5017544;27;103903;-74
2021/12/31 05:00:32;;;;;;;1.70;1.60;;;;;;;11.77;83.35;99326.81;5017731;27;102777;-74
2021/12/31 05:03:07;;;;;;;1.30;1.20;;;;;;;11.80;83.12;99329.25;5018685;27;103400;-74
2021/12/31 05:05:39;;;;;;;1.77;1.67;;;;;;;11.73;82.22;99320.03;5017568;28;103217;-74
2021/12/31 05:08:07;;;;;;;2.03;1.90;;;;;;;11.00;84.93;99322.16;5019471;28;102832;-74
2021/12/31 05:10:36;;;;;;;2.38;1.90;;;;;;;10.88;85.31;99327.41;5021759;27;102947;-74
2021/12/31 05:13:06;;;;;;;2.40;1.98;;;;;;;11.05;85.33;99324.53;5018325;27;103984;-74
2021/12/31 05:15:36;;;;;;;2.40;1.90;;;;;;;11.04;86.28;99326.31;5020367;27;103235;-74
2021/12/31 05:18:05;;;;;;;2.30;2.00;;;;;;;11.09;85.38;99330.47;5016795;28;102597;-72
2021/12/31 05:20:34;;;;;;;1.90;1.58;;;;;;;11.14;85.06;99328.38;5015112;28;103910;-72
2021/12/31 05:23:02;;;;;;;1.85;1.70;;;;;;;11.16;84.39;99329.13;5018547;27;104791;-72
2021/12/31 05:25:30;;;;;;;2.20;1.60;;;;;;;11.14;84.20;99326.59;5021295;27;102999;-72
2021/12/31 05:27:59;;;;;;;1.77;1.67;;;;;;;11.01;84.39;99329.16;5015533;27;102659;-72
2021/12/31 05:30:29;;;;;;;2.70;1.90;;;;;;;10.95;84.87;99324.25;5018935;27;103881;-72
2021/12/31 05:32:59;;;;;;;1.80;1.67;;;;;;;10.84;84.60;99326.75;5006769;28;104319;-72
2021/12/31 05:35:28;;;;;;;2.20;1.50;;;;;;;10.92;85.35;99324.44;5018629;27;103238;-72
2021/12/31 05:37:57;;;;;;;1.90;1.60;;;;;;;10.98;84.96;99324.06;4999379;28;102665;-61
2021/12/31 05:40:27;;;;;;;2.10;2.00;;;;;;;10.91;83.95;99322.78;4996041;28;103708;-69
2021/12/31 05:42:55;;;;;;;2.20;1.80;;;;;;;10.97;84.06;99322.38;5014858;28;103327;-69
2021/12/31 05:45:23;;;;;;;1.60;1.50;;;;;;;10.99;84.39;99325.78;5002441;28;103401;-70
2021/12/31 05:47:59;;;;;;;1.65;1.55;;;;;;;11.02;84.25;99325.59;5015028;28;102602;-69
2021/12/31 05:50:32;;;;;;;1.67;1.58;;;;;;;11.03;83.98;99316.69;5017031;28;103709;-70
2021/12/31 05:53:03;;;;;;;2.55;2.35;;;;;;;10.50;85.27;99311.28;5018096;28;103241;-78
2021/12/31 05:55:31;;;;;;;3.22;2.45;;;;;;;10.49;85.47;99312.25;5017722;28;103242;-69
2021/12/31 05:58:01;;;;;;;2.58;2.38;;;;;;;10.51;85.79;99315.66;5019863;28;102674;-77
2021/12/31 06:00:30;;;;;;;4.32;2.75;;;;;;;10.53;86.11;99315.53;5014424;27;104096;-77
2021/12/31 06:03:00;;;;;;;2.20;2.00;;;;;;;10.58;86.75;99306.41;5020040;28;103062;-78
2021/12/31 06:05:29;;;;;;;1.67;1.52;;;;;;;10.74;86.28;99304.50;5018981;28;102966;-78
2021/12/31 06:07:59;;;;;;;2.50;1.90;;;;;;;10.66;85.92;99309.41;5021556;27;103118;-77
2021/12/31 06:10:28;;;;;;;3.10;2.08;;;;;;;10.36;85.01;99312.16;5012768;28;103651;-78
2021/12/31 06:12:58;;;;;;;2.38;2.00;;;;;;;10.40;85.54;99310.19;5020881;27;103252;-78
2021/12/31 06:15:28;;;;;;;2.30;2.10;;;;;;;10.37;86.71;99305.94;5021901;27;103210;-78
2021/12/31 06:17:56;;;;;;;3.27;1.83;;;;;;;10.60;86.70;99301.03;5011970;28;103028;-78
2021/12/31 06:20:28;;;;;;;4.07;2.58;;;;;;;10.29;85.89;99307.34;5020747;28;102973;-78
2021/12/31 06:23:00;;;;;;;2.53;1.83;;;;;;;10.47;86.42;99327.34;5016879;28;103814;-78
2021/12/31 06:25:29;;;;;;;2.57;2.10;;;;;;;10.39;85.38;99324.31;5009312;28;103268;-77
2021/12/31 06:27:57;;;;;;;3.00;2.20;;;;;;;9.77;87.09;99328.94;5016855;28;102742;-78
2021/12/31 06:30:25;;;;;;;2.30;2.10;;;;;;;10.00;88.31;99334.63;5023466;27;102553;-77
2021/12/31 06:32:54;;;;;;;2.93;2.20;;;;;;;10.07;87.79;99325.44;5019334;27;103275;-78
2021/12/31 06:35:23;;;;;;;2.58;1.80;;;;;;;10.08;87.66;99340.31;5021120;27;102586;-77
2021/12/31 06:37:54;;;;;;;2.63;2.28;;;;;;;9.99;87.47;99340.88;5020216;28;102850;-78
2021/12/31 06:40:23;;;;;;;2.00;1.70;;;;;;;10.18;87.39;99336.22;5007112;28;103879;-78
2021/12/31 06:42:52;;;;;;;1.70;1.60;;;;;;;10.19;86.76;99327.38;5020599;27;103953;-78
2021/12/31 06:45:20;;;;;;;1.90;1.50;;;;;;;10.16;86.49;99324.91;5019089;27;103417;-78
2021/12/31 06:47:48;;;;;;;3.80;1.90;;;;;;;9.77;87.39;99331.56;5015936;28;102667;-78
2021/12/31 06:50:15;;;;;;;2.35;1.90;;;;;;;9.83;87.53;99330.38;5020988;28;102679;-77
2021/12/31 06:52:45;;;;;;;2.83;1.53;;;;;;;9.89;88.14;99320.31;5020143;28;103252;-78
2021/12/31 06:55:15;;;;;;;2.03;1.70;;;;;;;9.85;89.57;99334.59;5019303;27;103200;-69
2021/12/31 06:57:43;;;;;;;2.08;1.83;;;;;;;9.63;89.20;99328.91;5017765;27;102667;-69
2021/12/31 07:00:14;;;;;;;2.03;1.80;;;;;;;9.64;90.54;99340.31;5020689;27;102747;-69
2021/12/31 07:02:42;;;;;;;2.28;2.00;;;;;;;9.65;90.10;99334.97;5011634;28;104465;-69
2021/12/31 07:05:10;;;;;;;2.10;1.67;;;;;;;9.71;89.99;99334.56;5016189;28;103513;-69
2021/12/31 07:07:38;;;;;;;2.50;2.30;;;;;;;9.32;93.74;99336.88;5007664;28;102819;-78
2021/12/31 07:10:08;;;;;;;2.53;1.90;;;;;;;9.68;93.03;99350.63;5018352;28;103589;-77
2021/12/31 07:12:37;;;;;;;3.37;1.97;;;;;;;9.94;90.98;99342.94;5018859;27;104242;-77
2021/12/31 07:15:05;;;;;;;1.67;1.48;;;;;;;10.05;90.09;99341.34;5021209;27;103190;-78
2021/12/31 07:17:33;;;;;;;2.03;1.50;;;;;;;10.14;88.17;99340.81;5018513;27;102981;-78
2021/12/31 07:20:01;;;;;;;1.80;1.70;;;;;;;10.16;88.06;99346.03;5021415;27;103896;-78
2021/12/31 07:22:29;;;;;;;2.22;1.88;;;;;;;10.17;87.32;99342.44;5018181;27;103509;-78
2021/12/31 07:24:57;;;;;;;1.95;1.75;;;;;;;10.10;86.46;99344.56;5017931;28;103207;-78
2021/12/31 07:27:25;;;;;;;2.95;2.17;;;;;;;9.56;88.73;99342.53;5022885;27;103851;-78
2021/12/31 07:29:57;;;;;;;3.93;2.73;;;;;;;8.78;93.62;99348.75;5020345;27;103955;-78
2021/12/31 07:32:26;;;;;;;3.83;2.65;;;;;;;8.78;96.41;99348.75;5023414;27;104022;-66
2021/12/31 07:34:57;;;;;;;3.15;2.85;;;;;;;8.42;99.96;99343.66;5011694;28;104166;-71
2021/12/31 07:37:25;;;;;;;3.38;3.00;;;;;;;8.50;100.00;99344.13;5009886;28;102706;-74
2021/12/31 07:40:00;;;;;;;2.50;2.25;;;;;;;9.29;97.67;99332.63;5018831;28;102814;-74
2021/12/31 07:42:28;;;;;;;2.03;1.83;;;;;;;9.84;94.23;99332.94;5018585;27;103840;-75
2021/12/31 07:44:57;;;;;;;3.17;2.03;;;;;;;9.82;92.31;99345.34;5019986;27;103304;-74
2021/12/31 07:47:25;;;;;;;2.15;1.95;;;;;;;9.93;92.20;99351.78;5017985;27;103060;-74
2021/12/31 07:49:53;;;;;;;3.53;2.22;;;;;;;9.87;91.79;99348.59;5009821;28;102659;-74
2021/12/31 07:52:22;;;;;;;3.03;2.10;;;;;;;9.97;93.60;99350.66;5018305;28;104234;-74
2021/12/31 07:54:50;;;;;;;2.83;2.20;;;;;;;10.30;92.08;99346.03;5020373;27;103263;-74
2021/12/31 07:57:18;;;;;;;1.90;1.80;;;;;;;10.57;90.37;99344.34;5017527;28;102566;-74
2021/12/31 07:59:46;;;;;;;1.85;1.70;;;;;;;10.78;89.70;99342.16;5018870;27;103070;-74
2021/12/31 08:02:15;;;;;;;2.10;1.90;;;;;;;10.90;89.44;99344.84;5011027;28;104256;-74
2021/12/31 08:04:43;;;;;;;2.05;1.85;;;;;;;11.14;88.30;99349.53;5017680;28;103334;-72
2021/12/31 08:07:11;;;;;;;2.25;2.00;;;;;;;11.27;87.91;99355.72;5020942;27;102629;-74
2021/12/31 08:09:41;;;;;;;3.22;2.22;;;;;;;11.26;87.74;99352.22;5007501;28;103219;-74
2021/12/31 08:12:09;;;;;;;2.40;2.20;;;;;;;11.15;89.91;99357.34;5016251;28;103165;-74
2021/12/31 08:14:37;;;;;;;2.45;2.00;;;;;;;11.41;89.94;99358.31;5017557;28;102556;-75
2021/12/31 08:17:05;;;;;;;2.40;2.03;;;;;;;11.57;88.17;99353.72;5021350;27;102602;-74
2021/12/31 08:19:35;;;;;;;3.00;2.70;;;;;;;11.29;90.25;99354.66;5022274;27;102689;-74
2021/12/31 08:22:03;;;;;;;2.58;2.38;;;;;;;11.82;88.34;99353.81;5017600;27;103393;-74
2021/12/31 08:24:31;;;;;;;2.55;2.10;;;;;;;12.06;87.75;99357.47;5019046;27;102988;-74
2021/12/31 08:26:59;;;;;;;2.58;2.25;;;;;;;12.00;87.46;99365.81;5015629;27;102597;-74
2021/12/31 08:29:27;;;;;;;2.83;2.20;;;;;;;12.42;86.90;99364.69;5011547;27;102783;-74
2021/12/31 08:31:55;;;;;;;3.65;2.90;;;;;;;12.28;86.12;99363.94;5020643;27;103648;-75
2021/12/31 08:34:23;;;;;;;2.50;2.30;;;;;;;12.28;86.38;99355.97;5021369;27;103161;-74
2021/12/31 08:36:53;;;;;;;3.08;2.80;;;;;;;12.60;86.06;99358.09;5017218;28;102818;-75
2021/12/31 08:39:21;;;;;;;3.05;2.40;;;;;;;12.71;85.78;99357.34;5011270;28;103931;-75
2021/12/31 08:41:49;;;;;;;3.10;2.80;;;;;;;12.54;86.15;99357.69;5013468;28;103121;-75
2021/12/31 08:44:19;;;;;;;2.45;2.25;;;;;;;13.30;85.01;99343.28;5012601;27;103508;-68
2021/12/31 08:46:47;;;;;;;3.00;2.40;;;;;;;13.46;83.23;99344.84;5019653;28;103222;-78
2021/12/31 08:49:16;;;;;;;2.80;2.60;;;;;;;13.40;82.17;99350.59;5021381;27;103534;-78
2021/12/31 08:51:46;;;;;;;3.55;2.97;;;;;;;13.02;82.59;99335.66;5006082;28;103227;-79
2021/12/31 08:54:16;;;;;;;3.45;3.15;;;;;;;12.67;84.94;99332.84;5018746;28;103242;-78
2021/12/31 08:56:44;;;;;;;3.50;3.20;;;;;;;12.73;86.05;99332.41;5020208;27;103033;-79
2021/12/31 08:59:19;;;;;;;3.50;3.20;;;;;;;12.81;84.87;99331.88;5018131;28;103766;-70
2021/12/31 09:01:47;;;;;;;3.33;3.03;;;;;;;13.07;84.09;99333.53;5014735;27;104521;-79
2021/12/31 09:04:15;;;;;;;2.80;2.60;;;;;;;13.72;81.98;99327.81;5019436;27;103291;-79
2021/12/31 09:06:43;;;;;;;3.40;3.10;;;;;;;13.25;82.05;99333.97;5016743;27;102586;-79
2021/12/31 09:09:11;;;;;;;3.70;3.03;;;;;;;13.64;81.45;99330.22;5017492;28;102612;-79
2021/12/31 09:11:43;;;;;;;3.72;3.20;;;;;;;13.49;80.49;99332.19;5020379;27;103830;-79
2021/12/31 09:14:12;;;;;;;3.27;2.97;;;;;;;13.53;81.07;99327.50;5018071;27;103569;-79
2021/12/31 09:16:45;;;;;;;3.33;3.03;;;;;;;13.38;81.41;99324.19;5009577;28;102663;-79
2021/12/31 09:19:13;;;;;;;3.35;3.08;;;;;;;13.70;80.93;99337.69;5022802;27;103680;-79
2021/12/31 09:21:43;;;;;;;3.53;3.23;;;;;;;13.11;82.70;99335.00;5020360;27;103307;-78
2021/12/31 09:24:11;;;;;;;3.30;3.00;;;;;;;13.55;82.04;99325.56;5020561;27;103222;-79
2021/12/31 09:26:41;;;;;;;3.60;3.30;;;;;;;13.45;81.43;99327.19;5021159;28;102948;-80
2021/12/31 09:29:09;;;;;;;2.90;2.70;;;;;;;13.66;82.17;99318.50;5025357;27;102702;-78
2021/12/31 09:31:37;;;;;;;3.00;2.80;;;;;;;14.03;79.50;99321.03;5016747;27;102548;-71
2021/12/31 09:34:05;;;;;;;3.53;3.20;;;;;;;13.77;80.39;99315.88;5014708;28;104761;-79
2021/12/31 09:36:33;;;;;;;3.70;3.40;;;;;;;13.59;80.83;99319.06;5021150;27;102697;-79
2021/12/31 09:39:01;;;;;;;3.80;3.50;;;;;;;13.89;79.75;99320.25;5014562;27;102944;-72
2021/12/31 09:41:29;;;;;;;4.07;3.72;;;;;;;13.56;81.34;99316.66;5019052;27;103356;-71
2021/12/31 09:43:58;;;;;;;3.50;3.13;;;;;;;13.96;79.57;99307.34;5022088;27;103194;-71
2021/12/31 09:46:26;;;;;;;3.60;3.30;;;;;;;14.22;79.10;99322.16;5015545;27;102619;-71
2021/12/31 09:48:54;;;;;;;3.80;3.45;;;;;;;14.25;78.56;99318.41;5021445;27;103851;-71
2021/12/31 09:51:25;;;;;;;3.70;3.40;;;;;;;14.30;78.09;99324.22;5017808;27;103325;-72
2021/12/31 09:53:58;;;;;;;4.17;3.70;;;;;;;13.89;79.72;99324.75;5020684;27;103199;-72
2021/12/31 09:56:26;;;;;;;3.58;3.28;;;;;;;14.11;78.48;99324.78;5016995;28;102804;-78
2021/12/31 09:58:54;;;;;;;3.60;3.30;;;;;;;14.22;78.75;99331.94;5017112;28;104387;-78
2021/12/31 10:01:24;;;;;;;3.67;3.30;;;;;;;14.17;78.77;99334.97;5019519;27;103511;-78
2021/12/31 10:03:57;;;;;;;3.37;3.07;;;;;;;14.75;76.26;99325.09;5017326;27;103179;-79
2021/12/31 10:06:25;;;;;;;4.03;3.63;;;;;;;14.76;76.68;99313.50;5021159;27;102630;-78
2021/12/31 10:08:57;;;;;;;3.80;3.30;;;;;;;14.81;77.00;99327.28;5020612;28;102613;-79
2021/12/31 10:11:25;;;;;;;3.28;2.97;;;;;;;14.90;76.37;99324.75;5019661;27;103318;-79
2021/12/31 10:13:55;;;;;;;3.70;3.40;;;;;;;14.89;76.00;99319.53;5017452;27;103234;-78
2021/12/31 10:16:27;;;;;;;3.85;3.53;;;;;;;15.17;75.71;99321.66;5019990;27;103037;-78
2021/12/31 10:19:07;;;;;;;3.45;3.15;;;;;;;14.85;76.57;99312.78;5017763;28;103282;-78
2021/12/31 10:21:38;;;;;;;4.10;3.70;;;;;;;14.44;78.24;99305.41;5015854;28;103400;-78
2021/12/31 10:24:23;;;;;;;3.60;3.30;;;;;;;15.04;76.70;99299.69;5016982;27;103471;-78
2021/12/31 10:26:53;;;;;;;4.10;3.70;;;;;;;15.32;75.82;99295.59;5007001;27;102604;-78
2021/12/31 10:29:21;;;;;;;4.60;4.20;;;;;;;15.33;75.44;99300.78;5009636;28;103990;-78
2021/12/31 10:31:53;;;;;;;4.00;3.60;;;;;;;15.38;74.18;99293.25;5019237;28;103982;-79
2021/12/31 10:34:29;;;;;;;4.13;3.83;;;;;;;15.57;75.26;99287.31;5021308;27;103178;-78
2021/12/31 10:36:59;;;;;;;4.40;3.70;;;;;;;15.85;74.30;99285.81;5019139;28;102967;-78
2021/12/31 10:39:29;;;;;;;4.05;3.72;;;;;;;15.67;74.57;99293.53;5018663;27;102690;-78
2021/12/31 10:42:06;;;;;;;3.67;3.38;;;;;;;15.45;75.01;99278.47;5013889;28;103243;-78
2021/12/31 10:44:43;;;;;;;3.58;3.30;;;;;;;15.63;75.27;99276.97;5008463;28;103212;-78
2021/12/31 10:47:14;;;;;;;3.80;3.40;;;;;;;15.77;74.75;99273.16;5012321;27;103099;-78
2021/12/31 10:50:11;;;;;;;3.85;3.55;;;;;;;15.74;74.33;99261.91;5008231;27;102697;-76
2021/12/31 10:52:43;;;;;;;4.20;3.90;;;;;;;15.51;74.97;99264.69;4997824;27;104633;-77
2021/12/31 10:55:22;;;;;;;3.47;3.17;;;;;;;16.15;73.82;99269.88;5025240;27;104286;-77
2021/12/31 10:57:53;;;;;;;3.70;3.30;;;;;;;16.41;72.23;99278.28;5012967;28;102770;-76
2021/12/31 11:00:24;;;;;;;3.70;3.30;;;;;;;16.16;72.52;99272.44;5013706;27;103844;-71
2021/12/31 11:02:53;;;;;;;3.47;3.17;;;;;;;16.40;71.64;99256.09;5018042;28;103394;-71
2021/12/31 11:05:23;;;;;;;2.87;2.67;;;;;;;16.74;71.48;99260.19;5012787;27;103227;-71
2021/12/31 11:07:52;;;;;;;3.20;3.00;;;;;;;16.64;71.30;99278.00;5015264;28;102598;-72
2021/12/31 11:10:35;;;;;;;3.27;3.07;;;;;;;16.76;71.24;99258.22;5020202;27;103925;-73
2021/12/31 11:13:09;;;;;;;2.97;2.78;;;;;;;17.09;69.24;99253.53;5020315;27;104123;-71
2021/12/31 11:15:41;;;;;;;2.95;2.72;;;;;;;17.15;69.18;99253.00;5010534;27;103953;-71
2021/12/31 11:18:11;;;;;;;3.13;2.83;;;;;;;16.78;69.29;99248.28;5017805;27;102696;-71
2021/12/31 11:20:42;;;;;;;3.78;2.83;;;;;;;16.56;70.59;99253.00;5015189;28;102819;-73
2021/12/31 11:23:10;;;;;;;3.22;2.92;;;;;;;17.05;69.82;99236.09;5018841;27;104155;-72
2021/12/31 11:25:51;;;;;;;3.33;2.93;;;;;;;17.10;69.55;99233.84;5013057;28;103424;-77
2021/12/31 11:28:28;;;;;;;3.47;2.80;;;;;;;17.24;68.97;99225.44;5018269;28;102585;-76
2021/12/31 11:30:57;;;;;;;2.80;2.60;;;;;;;17.34;67.79;99228.97;5019433;27;102701;-72
2021/12/31 11:33:29;;;;;;;3.07;2.70;;;;;;;17.60;68.02;99231.94;5016017;28;104682;-76
2021/12/31 11:36:06;;;;;;;2.70;2.50;;;;;;;16.98;68.36;99232.31;5018948;27;103013;-76
2021/12/31 11:38:45;;;;;;;2.85;2.55;;;;;;;17.25;68.63;99217.28;5018852;28;102688;-76